sensor_id;sensor_type;location;lat;lon;timestamp;temperature;humidity
45849;DHT22;31567;54.600;9.842;2023-12-07T00:03:03;3.30;99.90
45849;DHT22;31567;54.600;9.842;2023-12-07T00:06:46;3.30;99.90
45849;DHT22;31567;54.600;9.842;2023-12-07T00:10:25;3.30;99.90
45849;DHT22;31567;54.600;9.842;2023-12-07T00:14:05;3.40;99.90
45849;DHT22;31567;54.600;9.842;2023-12-07T00:17:44;3.40;99.90
45849;DHT22;31567;54.600;9.842;2023-12-07T00:21:24;3.40;99.90
45849;DHT22;31567;54.600;9.842;2023-12-07T00:25:04;3.50;99.90
45849;DHT22;31567;54.600;9.842;2023-12-07T00:28:44;3.50;99.90
45849;DHT22;31567;54.600;9.842;2023-12-07T00:32:24;3.50;99.90
45849;DHT22;31567;54.600;9.842;2023-12-07T00:36:07;3.50;99.90
45849;DHT22;31567;54.600;9.842;2023-12-07T00:39:46;3.60;99.90
45849;DHT22;31567;54.600;9.842;2023-12-07T00:43:26;3.50;99.90
45849;DHT22;31567;54.600;9.842;2023-12-07T00:47:06;3.50;99.90
45849;DHT22;31567;54.600;9.842;2023-12-07T00:50:45;3.40;99.90
45849;DHT22;31567;54.600;9.842;2023-12-07T00:54:26;3.40;99.90
45849;DHT22;31567;54.600;9.842;2023-12-07T00:58:05;3.50;99.90
45849;DHT22;31567;54.600;9.842;2023-12-07T01:01:45;3.50;99.90
45849;DHT22;31567;54.600;9.842;2023-12-07T01:05:24;3.50;99.90
45849;DHT22;31567;54.600;9.842;2023-12-07T01:09:04;3.50;99.90
45849;DHT22;31567;54.600;9.842;2023-12-07T01:12:43;3.50;99.90
45849;DHT22;31567;54.600;9.842;2023-12-07T01:16:23;3.50;99.90
45849;DHT22;31567;54.600;9.842;2023-12-07T01:20:06;3.50;99.90
45849;DHT22;31567;54.600;9.842;2023-12-07T01:23:51;3.50;99.90
45849;DHT22;31567;54.600;9.842;2023-12-07T01:27:30;3.50;99.90
45849;DHT22;31567;54.600;9.842;2023-12-07T01:31:10;3.40;99.90
45849;DHT22;31567;54.600;9.842;2023-12-07T01:34:49;3.40;99.90
45849;DHT22;31567;54.600;9.842;2023-12-07T01:38:29;3.40;99.90
45849;DHT22;31567;54.600;9.842;2023-12-07T01:42:08;3.40;99.90
45849;DHT22;31567;54.600;9.842;2023-12-07T01:45:49;3.50;99.90
45849;DHT22;31567;54.600;9.842;2023-12-07T01:49:30;3.50;99.90
45849;DHT22;31567;54.600;9.842;2023-12-07T01:53:10;3.60;99.90
45849;DHT22;31567;54.600;9.842;2023-12-07T01:56:52;3.60;99.90
45849;DHT22;31567;54.600;9.842;2023-12-07T02:00:33;3.60;99.90
45849;DHT22;31567;54.600;9.842;2023-12-07T02:04:13;3.70;99.90
45849;DHT22;31567;54.600;9.842;2023-12-07T02:07:54;3.70;99.90
45849;DHT22;31567;54.600;9.842;2023-12-07T02:11:33;3.80;99.90
45849;DHT22;31567;54.600;9.842;2023-12-07T02:15:13;3.80;99.90
45849;DHT22;31567;54.600;9.842;2023-12-07T02:22:54;3.90;99.90
45849;DHT22;31567;54.600;9.842;2023-12-07T02:26:36;3.90;99.90
45849;DHT22;31567;54.600;9.842;2023-12-07T02:30:17;3.90;99.90
45849;DHT22;31567;54.600;9.842;2023-12-07T02:33:56;3.90;99.90
45849;DHT22;31567;54.600;9.842;2023-12-07T02:37:44;3.90;99.90
45849;DHT22;31567;54.600;9.842;2023-12-07T02:41:25;3.90;99.90
45849;DHT22;31567;54.600;9.842;2023-12-07T02:45:05;3.90;99.90
45849;DHT22;31567;54.600;9.842;2023-12-07T02:48:45;3.80;99.90
45849;DHT22;31567;54.600;9.842;2023-12-07T02:52:24;3.80;99.90
45849;DHT22;31567;54.600;9.842;2023-12-07T02:56:04;3.70;99.90
45849;DHT22;31567;54.600;9.842;2023-12-07T02:59:44;3.70;99.90
45849;DHT22;31567;54.600;9.842;2023-12-07T03:03:23;3.70;99.90
45849;DHT22;31567;54.600;9.842;2023-12-07T03:07:03;3.70;99.90
45849;DHT22;31567;54.600;9.842;2023-12-07T03:10:43;3.70;99.90
45849;DHT22;31567;54.600;9.842;2023-12-07T03:14:22;3.70;99.90
45849;DHT22;31567;54.600;9.842;2023-12-07T03:18:02;3.80;99.90
45849;DHT22;31567;54.600;9.842;2023-12-07T03:21:42;3.90;99.90
45849;DHT22;31567;54.600;9.842;2023-12-07T03:25:22;3.90;99.90
45849;DHT22;31567;54.600;9.842;2023-12-07T03:29:01;3.90;99.90
45849;DHT22;31567;54.600;9.842;2023-12-07T03:32:41;4.00;99.90
45849;DHT22;31567;54.600;9.842;2023-12-07T03:36:21;4.00;99.90
45849;DHT22;31567;54.600;9.842;2023-12-07T03:40:01;4.10;99.90
45849;DHT22;31567;54.600;9.842;2023-12-07T03:43:40;4.00;99.90
45849;DHT22;31567;54.600;9.842;2023-12-07T03:47:20;4.10;99.90
45849;DHT22;31567;54.600;9.842;2023-12-07T03:51:00;4.10;99.90
45849;DHT22;31567;54.600;9.842;2023-12-07T03:54:41;4.00;99.90
45849;DHT22;31567;54.600;9.842;2023-12-07T03:58:20;3.90;99.90
45849;DHT22;31567;54.600;9.842;2023-12-07T04:02:00;4.00;99.90
45849;DHT22;31567;54.600;9.842;2023-12-07T04:05:39;4.00;99.90
45849;DHT22;31567;54.600;9.842;2023-12-07T04:09:19;4.10;99.90
45849;DHT22;31567;54.600;9.842;2023-12-07T04:12:59;4.10;99.90
45849;DHT22;31567;54.600;9.842;2023-12-07T04:16:38;4.10;99.90
45849;DHT22;31567;54.600;9.842;2023-12-07T04:20:18;4.10;99.90
45849;DHT22;31567;54.600;9.842;2023-12-07T04:23:58;4.30;99.90
45849;DHT22;31567;54.600;9.842;2023-12-07T04:27:37;4.30;99.90
45849;DHT22;31567;54.600;9.842;2023-12-07T04:31:17;4.40;99.90
45849;DHT22;31567;54.600;9.842;2023-12-07T04:34:56;4.40;99.90
45849;DHT22;31567;54.600;9.842;2023-12-07T04:38:36;4.40;99.90
45849;DHT22;31567;54.600;9.842;2023-12-07T04:42:15;4.40;99.90
45849;DHT22;31567;54.600;9.842;2023-12-07T04:45:55;4.50;99.90
45849;DHT22;31567;54.600;9.842;2023-12-07T04:49:34;4.50;99.90
45849;DHT22;31567;54.600;9.842;2023-12-07T04:53:14;4.50;99.90
45849;DHT22;31567;54.600;9.842;2023-12-07T04:56:53;4.60;99.90
45849;DHT22;31567;54.600;9.842;2023-12-07T05:00:33;4.60;99.90
45849;DHT22;31567;54.600;9.842;2023-12-07T05:04:13;4.70;99.90
45849;DHT22;31567;54.600;9.842;2023-12-07T05:07:52;4.70;99.90
45849;DHT22;31567;54.600;9.842;2023-12-07T05:11:32;4.70;99.90
45849;DHT22;31567;54.600;9.842;2023-12-07T05:15:11;4.70;99.90
45849;DHT22;31567;54.600;9.842;2023-12-07T05:18:51;4.70;99.90
45849;DHT22;31567;54.600;9.842;2023-12-07T05:22:30;4.70;99.90
45849;DHT22;31567;54.600;9.842;2023-12-07T05:26:10;4.70;99.90
45849;DHT22;31567;54.600;9.842;2023-12-07T05:29:50;4.70;99.90
45849;DHT22;31567;54.600;9.842;2023-12-07T05:33:29;4.70;99.90
45849;DHT22;31567;54.600;9.842;2023-12-07T05:37:09;4.80;99.90
45849;DHT22;31567;54.600;9.842;2023-12-07T05:40:48;4.70;99.90
45849;DHT22;31567;54.600;9.842;2023-12-07T05:44:28;4.70;99.90
45849;DHT22;31567;54.600;9.842;2023-12-07T05:48:10;4.80;99.90
45849;DHT22;31567;54.600;9.842;2023-12-07T05:51:50;4.80;99.90
45849;DHT22;31567;54.600;9.842;2023-12-07T05:55:32;4.80;99.90
45849;DHT22;31567;54.600;9.842;2023-12-07T05:59:12;4.80;99.90
45849;DHT22;31567;54.600;9.842;2023-12-07T06:02:51;4.80;99.90
45849;DHT22;31567;54.600;9.842;2023-12-07T06:06:31;4.70;99.90
45849;DHT22;31567;54.600;9.842;2023-12-07T06:10:10;4.70;99.90
45849;DHT22;31567;54.600;9.842;2023-12-07T06:13:50;4.70;99.90
45849;DHT22;31567;54.600;9.842;2023-12-07T06:17:30;4.70;99.90
45849;DHT22;31567;54.600;9.842;2023-12-07T06:21:09;4.70;99.90
45849;DHT22;31567;54.600;9.842;2023-12-07T06:24:49;4.70;99.90
45849;DHT22;31567;54.600;9.842;2023-12-07T06:28:29;4.70;99.90
45849;DHT22;31567;54.600;9.842;2023-12-07T06:32:10;4.70;99.90
45849;DHT22;31567;54.600;9.842;2023-12-07T06:35:49;4.70;99.90
45849;DHT22;31567;54.600;9.842;2023-12-07T06:39:29;4.70;99.90
45849;DHT22;31567;54.600;9.842;2023-12-07T06:43:08;4.80;99.90
45849;DHT22;31567;54.600;9.842;2023-12-07T06:46:48;4.80;99.90
45849;DHT22;31567;54.600;9.842;2023-12-07T06:50:28;4.80;99.90
45849;DHT22;31567;54.600;9.842;2023-12-07T06:54:08;4.70;99.90
45849;DHT22;31567;54.600;9.842;2023-12-07T06:57:47;4.70;99.90
45849;DHT22;31567;54.600;9.842;2023-12-07T07:01:27;4.70;99.90
45849;DHT22;31567;54.600;9.842;2023-12-07T07:05:07;4.70;99.90
45849;DHT22;31567;54.600;9.842;2023-12-07T07:08:47;4.70;99.90
45849;DHT22;31567;54.600;9.842;2023-12-07T07:12:26;4.70;99.90
45849;DHT22;31567;54.600;9.842;2023-12-07T07:16:07;4.70;99.90
45849;DHT22;31567;54.600;9.842;2023-12-07T07:19:47;4.70;99.90
45849;DHT22;31567;54.600;9.842;2023-12-07T07:23:26;4.60;99.90
45849;DHT22;31567;54.600;9.842;2023-12-07T07:27:06;4.60;99.90
45849;DHT22;31567;54.600;9.842;2023-12-07T07:30:45;4.60;99.90
45849;DHT22;31567;54.600;9.842;2023-12-07T07:34:25;4.60;99.90
45849;DHT22;31567;54.600;9.842;2023-12-07T07:38:04;4.60;99.90
45849;DHT22;31567;54.600;9.842;2023-12-07T07:41:44;4.50;99.90
45849;DHT22;31567;54.600;9.842;2023-12-07T07:45:23;4.60;99.90
45849;DHT22;31567;54.600;9.842;2023-12-07T07:49:04;4.60;99.90
45849;DHT22;31567;54.600;9.842;2023-12-07T07:52:43;4.60;99.90
45849;DHT22;31567;54.600;9.842;2023-12-07T07:56:24;4.60;99.90
45849;DHT22;31567;54.600;9.842;2023-12-07T08:00:04;4.60;99.90
45849;DHT22;31567;54.600;9.842;2023-12-07T08:03:44;4.60;99.90
45849;DHT22;31567;54.600;9.842;2023-12-07T08:07:24;4.60;99.90
45849;DHT22;31567;54.600;9.842;2023-12-07T08:11:04;4.60;99.90
45849;DHT22;31567;54.600;9.842;2023-12-07T08:14:44;4.60;99.90
45849;DHT22;31567;54.600;9.842;2023-12-07T08:18:25;4.50;99.90
45849;DHT22;31567;54.600;9.842;2023-12-07T08:22:05;4.60;99.90
45849;DHT22;31567;54.600;9.842;2023-12-07T08:25:44;4.60;99.90
45849;DHT22;31567;54.600;9.842;2023-12-07T08:29:24;4.60;99.90
45849;DHT22;31567;54.600;9.842;2023-12-07T08:33:04;4.60;99.90
45849;DHT22;31567;54.600;9.842;2023-12-07T08:36:43;4.60;99.90
45849;DHT22;31567;54.600;9.842;2023-12-07T08:40:23;4.60;99.90
45849;DHT22;31567;54.600;9.842;2023-12-07T08:44:03;4.70;99.90
45849;DHT22;31567;54.600;9.842;2023-12-07T08:47:43;4.70;99.90
45849;DHT22;31567;54.600;9.842;2023-12-07T08:51:23;4.60;99.90
45849;DHT22;31567;54.600;9.842;2023-12-07T08:55:03;4.70;99.90
45849;DHT22;31567;54.600;9.842;2023-12-07T08:58:43;4.70;99.90
45849;DHT22;31567;54.600;9.842;2023-12-07T09:02:23;4.70;99.90
45849;DHT22;31567;54.600;9.842;2023-12-07T09:06:03;4.70;99.90
45849;DHT22;31567;54.600;9.842;2023-12-07T09:09:45;4.70;99.90
45849;DHT22;31567;54.600;9.842;2023-12-07T09:13:27;4.70;99.90
45849;DHT22;31567;54.600;9.842;2023-12-07T09:17:07;4.70;99.90
45849;DHT22;31567;54.600;9.842;2023-12-07T09:20:46;4.80;99.90
45849;DHT22;31567;54.600;9.842;2023-12-07T09:24:26;4.80;99.90
45849;DHT22;31567;54.600;9.842;2023-12-07T09:28:06;4.80;99.90
45849;DHT22;31567;54.600;9.842;2023-12-07T09:31:45;4.80;99.90
45849;DHT22;31567;54.600;9.842;2023-12-07T09:35:25;4.80;99.90
45849;DHT22;31567;54.600;9.842;2023-12-07T09:39:04;4.80;99.90
45849;DHT22;31567;54.600;9.842;2023-12-07T09:42:44;4.90;99.90
45849;DHT22;31567;54.600;9.842;2023-12-07T09:46:24;4.80;99.90
45849;DHT22;31567;54.600;9.842;2023-12-07T09:50:10;4.90;99.90
45849;DHT22;31567;54.600;9.842;2023-12-07T09:53:52;4.90;99.90
45849;DHT22;31567;54.600;9.842;2023-12-07T09:57:32;5.00;99.90
45849;DHT22;31567;54.600;9.842;2023-12-07T10:01:13;5.10;99.90
45849;DHT22;31567;54.600;9.842;2023-12-07T10:05:07;5.10;99.90
45849;DHT22;31567;54.600;9.842;2023-12-07T10:08:49;5.10;99.90
45849;DHT22;31567;54.600;9.842;2023-12-07T10:12:32;5.20;99.90
45849;DHT22;31567;54.600;9.842;2023-12-07T10:16:14;5.30;99.90
45849;DHT22;31567;54.600;9.842;2023-12-07T10:20:15;5.30;99.90
45849;DHT22;31567;54.600;9.842;2023-12-07T10:23:54;5.30;99.90
45849;DHT22;31567;54.600;9.842;2023-12-07T10:27:34;5.20;99.90
45849;DHT22;31567;54.600;9.842;2023-12-07T10:31:18;5.20;99.90
45849;DHT22;31567;54.600;9.842;2023-12-07T10:34:57;5.20;99.90
45849;DHT22;31567;54.600;9.842;2023-12-07T10:38:40;5.20;99.90
45849;DHT22;31567;54.600;9.842;2023-12-07T10:42:24;5.20;99.90
45849;DHT22;31567;54.600;9.842;2023-12-07T10:46:06;5.20;99.90
45849;DHT22;31567;54.600;9.842;2023-12-07T10:49:52;5.30;99.90
45849;DHT22;31567;54.600;9.842;2023-12-07T10:53:37;5.30;99.90
45849;DHT22;31567;54.600;9.842;2023-12-07T10:57:23;5.40;99.90
45849;DHT22;31567;54.600;9.842;2023-12-07T11:01:03;5.40;99.90
45849;DHT22;31567;54.600;9.842;2023-12-07T11:04:45;5.40;99.90
45849;DHT22;31567;54.600;9.842;2023-12-07T11:08:40;5.50;99.90
45849;DHT22;31567;54.600;9.842;2023-12-07T11:12:41;5.60;99.90
45849;DHT22;31567;54.600;9.842;2023-12-07T11:16:36;5.60;99.90
45849;DHT22;31567;54.600;9.842;2023-12-07T11:20:20;5.70;99.90
45849;DHT22;31567;54.600;9.842;2023-12-07T11:24:00;5.70;99.90
45849;DHT22;31567;54.600;9.842;2023-12-07T11:27:44;5.80;99.90
45849;DHT22;31567;54.600;9.842;2023-12-07T11:31:27;5.80;99.90
45849;DHT22;31567;54.600;9.842;2023-12-07T11:35:12;5.80;99.90
45849;DHT22;31567;54.600;9.842;2023-12-07T11:42:43;5.70;99.90
45849;DHT22;31567;54.600;9.842;2023-12-07T11:46:22;5.70;99.90
45849;DHT22;31567;54.600;9.842;2023-12-07T11:50:03;5.70;99.90
45849;DHT22;31567;54.600;9.842;2023-12-07T11:53:43;5.60;99.90
45849;DHT22;31567;54.600;9.842;2023-12-07T11:57:23;5.60;99.90
45849;DHT22;31567;54.600;9.842;2023-12-07T12:01:03;5.60;99.90
45849;DHT22;31567;54.600;9.842;2023-12-07T12:04:43;5.50;99.90
45849;DHT22;31567;54.600;9.842;2023-12-07T12:08:23;5.40;99.90
45849;DHT22;31567;54.600;9.842;2023-12-07T12:12:03;5.40;99.90
45849;DHT22;31567;54.600;9.842;2023-12-07T12:15:42;5.40;99.90
45849;DHT22;31567;54.600;9.842;2023-12-07T12:19:23;5.40;99.90
45849;DHT22;31567;54.600;9.842;2023-12-07T12:23:03;5.40;99.90
45849;DHT22;31567;54.600;9.842;2023-12-07T12:26:44;5.40;99.90
45849;DHT22;31567;54.600;9.842;2023-12-07T12:30:24;5.30;99.90
45849;DHT22;31567;54.600;9.842;2023-12-07T12:34:06;5.40;99.90
45849;DHT22;31567;54.600;9.842;2023-12-07T12:37:48;5.30;99.90
45849;DHT22;31567;54.600;9.842;2023-12-07T12:41:28;5.30;99.90
45849;DHT22;31567;54.600;9.842;2023-12-07T12:45:10;5.30;99.90
45849;DHT22;31567;54.600;9.842;2023-12-07T12:52:36;5.30;99.90
45849;DHT22;31567;54.600;9.842;2023-12-07T12:56:19;5.30;99.90
45849;DHT22;31567;54.600;9.842;2023-12-07T13:00:01;5.40;99.90
45849;DHT22;31567;54.600;9.842;2023-12-07T13:03:41;5.40;99.90
45849;DHT22;31567;54.600;9.842;2023-12-07T13:07:20;5.40;99.90
45849;DHT22;31567;54.600;9.842;2023-12-07T13:11:00;5.40;99.90
45849;DHT22;31567;54.600;9.842;2023-12-07T13:14:40;5.50;99.90
45849;DHT22;31567;54.600;9.842;2023-12-07T13:18:19;5.50;99.90
45849;DHT22;31567;54.600;9.842;2023-12-07T13:22:00;5.50;99.90
45849;DHT22;31567;54.600;9.842;2023-12-07T13:25:40;5.60;99.90
45849;DHT22;31567;54.600;9.842;2023-12-07T13:29:22;5.60;99.90
45849;DHT22;31567;54.600;9.842;2023-12-07T13:33:02;5.60;99.90
45849;DHT22;31567;54.600;9.842;2023-12-07T13:36:43;5.60;99.90
45849;DHT22;31567;54.600;9.842;2023-12-07T13:40:23;5.70;99.90
45849;DHT22;31567;54.600;9.842;2023-12-07T13:44:02;5.60;99.90
45849;DHT22;31567;54.600;9.842;2023-12-07T13:47:42;5.60;99.90
45849;DHT22;31567;54.600;9.842;2023-12-07T13:51:21;5.60;99.90
45849;DHT22;31567;54.600;9.842;2023-12-07T13:55:01;5.60;99.90
45849;DHT22;31567;54.600;9.842;2023-12-07T13:58:41;5.60;99.90
45849;DHT22;31567;54.600;9.842;2023-12-07T14:02:21;5.60;99.90
45849;DHT22;31567;54.600;9.842;2023-12-07T14:06:00;5.60;99.90
45849;DHT22;31567;54.600;9.842;2023-12-07T14:09:43;5.60;99.90
45849;DHT22;31567;54.600;9.842;2023-12-07T14:13:23;5.60;99.90
45849;DHT22;31567;54.600;9.842;2023-12-07T14:17:04;5.50;99.90
45849;DHT22;31567;54.600;9.842;2023-12-07T14:20:44;5.60;99.90
45849;DHT22;31567;54.600;9.842;2023-12-07T14:24:24;5.50;99.90
45849;DHT22;31567;54.600;9.842;2023-12-07T14:28:04;5.50;99.90
45849;DHT22;31567;54.600;9.842;2023-12-07T14:31:45;5.50;99.90
45849;DHT22;31567;54.600;9.842;2023-12-07T14:35:24;5.50;99.90
45849;DHT22;31567;54.600;9.842;2023-12-07T14:39:04;5.40;99.90
45849;DHT22;31567;54.600;9.842;2023-12-07T14:42:46;5.40;99.90
45849;DHT22;31567;54.600;9.842;2023-12-07T14:46:26;5.30;99.90
45849;DHT22;31567;54.600;9.842;2023-12-07T14:50:06;5.30;99.90
45849;DHT22;31567;54.600;9.842;2023-12-07T14:53:46;5.20;99.90
45849;DHT22;31567;54.600;9.842;2023-12-07T14:57:26;5.10;99.90
45849;DHT22;31567;54.600;9.842;2023-12-07T15:01:08;5.20;99.90
45849;DHT22;31567;54.600;9.842;2023-12-07T15:04:48;5.10;99.90
45849;DHT22;31567;54.600;9.842;2023-12-07T15:08:28;5.00;99.90
45849;DHT22;31567;54.600;9.842;2023-12-07T15:12:07;5.00;99.90
45849;DHT22;31567;54.600;9.842;2023-12-07T15:15:47;5.00;99.90
45849;DHT22;31567;54.600;9.842;2023-12-07T15:19:26;5.00;99.90
45849;DHT22;31567;54.600;9.842;2023-12-07T15:23:07;4.90;99.90
45849;DHT22;31567;54.600;9.842;2023-12-07T15:26:46;4.90;99.90
45849;DHT22;31567;54.600;9.842;2023-12-07T15:30:27;4.90;99.90
45849;DHT22;31567;54.600;9.842;2023-12-07T15:34:08;4.90;99.90
45849;DHT22;31567;54.600;9.842;2023-12-07T15:37:49;4.90;99.90
45849;DHT22;31567;54.600;9.842;2023-12-07T15:41:29;4.90;99.90
45849;DHT22;31567;54.600;9.842;2023-12-07T15:45:08;4.90;99.90
45849;DHT22;31567;54.600;9.842;2023-12-07T15:48:48;4.90;99.90
45849;DHT22;31567;54.600;9.842;2023-12-07T15:52:27;4.80;99.90
45849;DHT22;31567;54.600;9.842;2023-12-07T15:56:07;4.80;99.90
45849;DHT22;31567;54.600;9.842;2023-12-07T15:59:47;4.80;99.90
45849;DHT22;31567;54.600;9.842;2023-12-07T16:03:26;4.80;99.90
45849;DHT22;31567;54.600;9.842;2023-12-07T16:07:08;4.70;99.90
45849;DHT22;31567;54.600;9.842;2023-12-07T16:10:48;4.70;99.90
45849;DHT22;31567;54.600;9.842;2023-12-07T16:14:27;4.50;99.90
45849;DHT22;31567;54.600;9.842;2023-12-07T16:18:07;4.40;99.90
45849;DHT22;31567;54.600;9.842;2023-12-07T16:21:47;4.20;99.90
45849;DHT22;31567;54.600;9.842;2023-12-07T16:25:27;4.20;99.90
45849;DHT22;31567;54.600;9.842;2023-12-07T16:29:06;4.10;99.90
45849;DHT22;31567;54.600;9.842;2023-12-07T16:32:46;4.20;99.90
45849;DHT22;31567;54.600;9.842;2023-12-07T16:36:28;4.10;99.90
45849;DHT22;31567;54.600;9.842;2023-12-07T16:40:08;4.10;99.90
45849;DHT22;31567;54.600;9.842;2023-12-07T16:43:48;4.00;99.90
45849;DHT22;31567;54.600;9.842;2023-12-07T16:47:28;3.90;99.90
45849;DHT22;31567;54.600;9.842;2023-12-07T16:51:07;3.90;99.90
45849;DHT22;31567;54.600;9.842;2023-12-07T16:54:47;3.90;99.90
45849;DHT22;31567;54.600;9.842;2023-12-07T16:58:26;3.90;99.90
45849;DHT22;31567;54.600;9.842;2023-12-07T17:02:06;3.80;99.90
45849;DHT22;31567;54.600;9.842;2023-12-07T17:05:45;3.70;99.90
45849;DHT22;31567;54.600;9.842;2023-12-07T17:09:26;3.60;99.90
45849;DHT22;31567;54.600;9.842;2023-12-07T17:13:05;3.50;99.90
45849;DHT22;31567;54.600;9.842;2023-12-07T17:16:45;3.50;99.90
45849;DHT22;31567;54.600;9.842;2023-12-07T17:20:25;3.50;99.90
45849;DHT22;31567;54.600;9.842;2023-12-07T17:24:04;3.50;99.90
45849;DHT22;31567;54.600;9.842;2023-12-07T17:27:45;3.50;99.90
45849;DHT22;31567;54.600;9.842;2023-12-07T17:31:25;3.50;99.90
45849;DHT22;31567;54.600;9.842;2023-12-07T17:35:04;3.50;99.90
45849;DHT22;31567;54.600;9.842;2023-12-07T17:38:44;3.60;99.90
45849;DHT22;31567;54.600;9.842;2023-12-07T17:42:24;3.60;99.90
45849;DHT22;31567;54.600;9.842;2023-12-07T17:46:04;3.70;99.90
45849;DHT22;31567;54.600;9.842;2023-12-07T17:49:43;3.80;99.90
45849;DHT22;31567;54.600;9.842;2023-12-07T17:53:23;3.80;99.90
45849;DHT22;31567;54.600;9.842;2023-12-07T17:57:02;3.80;99.90
45849;DHT22;31567;54.600;9.842;2023-12-07T18:00:42;3.70;99.90
45849;DHT22;31567;54.600;9.842;2023-12-07T18:04:21;3.70;99.90
45849;DHT22;31567;54.600;9.842;2023-12-07T18:08:01;3.60;99.90
45849;DHT22;31567;54.600;9.842;2023-12-07T18:11:43;3.50;99.90
45849;DHT22;31567;54.600;9.842;2023-12-07T18:15:24;3.40;99.90
45849;DHT22;31567;54.600;9.842;2023-12-07T18:19:03;3.30;99.90
45849;DHT22;31567;54.600;9.842;2023-12-07T18:22:43;3.20;99.90
45849;DHT22;31567;54.600;9.842;2023-12-07T18:26:22;3.20;99.90
45849;DHT22;31567;54.600;9.842;2023-12-07T18:30:04;3.20;99.90
45849;DHT22;31567;54.600;9.842;2023-12-07T18:33:44;3.10;99.90
45849;DHT22;31567;54.600;9.842;2023-12-07T18:37:24;3.10;99.90
45849;DHT22;31567;54.600;9.842;2023-12-07T18:41:03;3.10;99.90
45849;DHT22;31567;54.600;9.842;2023-12-07T18:44:43;3.20;99.90
45849;DHT22;31567;54.600;9.842;2023-12-07T18:48:23;3.20;99.90
45849;DHT22;31567;54.600;9.842;2023-12-07T18:52:02;3.30;99.90
45849;DHT22;31567;54.600;9.842;2023-12-07T18:55:43;3.30;99.90
45849;DHT22;31567;54.600;9.842;2023-12-07T18:59:23;3.30;99.90
45849;DHT22;31567;54.600;9.842;2023-12-07T19:03:02;3.20;99.90
45849;DHT22;31567;54.600;9.842;2023-12-07T19:06:42;3.20;99.90
45849;DHT22;31567;54.600;9.842;2023-12-07T19:10:21;3.20;99.90
45849;DHT22;31567;54.600;9.842;2023-12-07T19:14:01;3.30;99.90
45849;DHT22;31567;54.600;9.842;2023-12-07T19:17:40;3.30;99.90
45849;DHT22;31567;54.600;9.842;2023-12-07T19:21:20;3.40;99.90
45849;DHT22;31567;54.600;9.842;2023-12-07T19:24:59;3.40;99.90
45849;DHT22;31567;54.600;9.842;2023-12-07T19:28:40;3.40;99.90
45849;DHT22;31567;54.600;9.842;2023-12-07T19:32:20;3.40;99.90
45849;DHT22;31567;54.600;9.842;2023-12-07T19:36:00;3.40;99.90
45849;DHT22;31567;54.600;9.842;2023-12-07T19:39:40;3.40;99.90
45849;DHT22;31567;54.600;9.842;2023-12-07T19:43:19;3.30;99.90
45849;DHT22;31567;54.600;9.842;2023-12-07T19:46:59;3.30;99.90
45849;DHT22;31567;54.600;9.842;2023-12-07T19:50:39;3.20;99.90
45849;DHT22;31567;54.600;9.842;2023-12-07T19:54:18;3.20;99.90
45849;DHT22;31567;54.600;9.842;2023-12-07T19:58:03;3.20;99.90
45849;DHT22;31567;54.600;9.842;2023-12-07T20:01:43;3.10;99.90
45849;DHT22;31567;54.600;9.842;2023-12-07T20:05:23;3.00;99.90
45849;DHT22;31567;54.600;9.842;2023-12-07T20:09:03;3.00;99.90
45849;DHT22;31567;54.600;9.842;2023-12-07T20:12:43;3.10;99.90
45849;DHT22;31567;54.600;9.842;2023-12-07T20:16:22;3.10;99.90
45849;DHT22;31567;54.600;9.842;2023-12-07T20:20:02;3.10;99.90
45849;DHT22;31567;54.600;9.842;2023-12-07T20:23:42;3.10;99.90
45849;DHT22;31567;54.600;9.842;2023-12-07T20:27:22;3.20;99.90
45849;DHT22;31567;54.600;9.842;2023-12-07T20:31:01;3.10;99.90
45849;DHT22;31567;54.600;9.842;2023-12-07T20:34:41;3.10;99.90
45849;DHT22;31567;54.600;9.842;2023-12-07T20:38:20;3.10;99.90
45849;DHT22;31567;54.600;9.842;2023-12-07T20:42:00;3.00;99.90
45849;DHT22;31567;54.600;9.842;2023-12-07T20:45:40;3.00;99.90
45849;DHT22;31567;54.600;9.842;2023-12-07T20:49:19;2.90;99.90
45849;DHT22;31567;54.600;9.842;2023-12-07T20:52:59;2.90;99.90
45849;DHT22;31567;54.600;9.842;2023-12-07T20:56:42;2.90;99.90
45849;DHT22;31567;54.600;9.842;2023-12-07T21:00:21;2.90;99.90
45849;DHT22;31567;54.600;9.842;2023-12-07T21:04:01;2.90;99.90
45849;DHT22;31567;54.600;9.842;2023-12-07T21:07:41;2.90;99.90
45849;DHT22;31567;54.600;9.842;2023-12-07T21:11:20;2.80;99.90
45849;DHT22;31567;54.600;9.842;2023-12-07T21:15:00;2.80;99.90
45849;DHT22;31567;54.600;9.842;2023-12-07T21:18:41;2.90;99.90
45849;DHT22;31567;54.600;9.842;2023-12-07T21:22:20;2.90;99.90
45849;DHT22;31567;54.600;9.842;2023-12-07T21:26:02;2.90;99.90
45849;DHT22;31567;54.600;9.842;2023-12-07T21:29:42;2.90;99.90
45849;DHT22;31567;54.600;9.842;2023-12-07T21:33:21;2.90;99.90
45849;DHT22;31567;54.600;9.842;2023-12-07T21:37:01;2.90;99.90
45849;DHT22;31567;54.600;9.842;2023-12-07T21:40:40;2.90;99.90
45849;DHT22;31567;54.600;9.842;2023-12-07T21:44:20;2.90;99.90
45849;DHT22;31567;54.600;9.842;2023-12-07T21:48:00;2.90;99.90
45849;DHT22;31567;54.600;9.842;2023-12-07T21:51:39;2.90;99.90
45849;DHT22;31567;54.600;9.842;2023-12-07T21:55:19;3.00;99.90
45849;DHT22;31567;54.600;9.842;2023-12-07T21:58:58;2.90;99.90
45849;DHT22;31567;54.600;9.842;2023-12-07T22:02:38;3.00;99.90
45849;DHT22;31567;54.600;9.842;2023-12-07T22:06:24;2.90;99.90
45849;DHT22;31567;54.600;9.842;2023-12-07T22:10:04;3.00;99.90
45849;DHT22;31567;54.600;9.842;2023-12-07T22:13:44;3.00;99.90
45849;DHT22;31567;54.600;9.842;2023-12-07T22:17:24;3.00;99.90
45849;DHT22;31567;54.600;9.842;2023-12-07T22:21:03;3.00;99.90
45849;DHT22;31567;54.600;9.842;2023-12-07T22:24:44;3.00;99.90
45849;DHT22;31567;54.600;9.842;2023-12-07T22:28:23;3.10;99.90
45849;DHT22;31567;54.600;9.842;2023-12-07T22:32:03;3.00;99.90
45849;DHT22;31567;54.600;9.842;2023-12-07T22:35:43;3.00;99.90
45849;DHT22;31567;54.600;9.842;2023-12-07T22:39:22;3.00;99.90
45849;DHT22;31567;54.600;9.842;2023-12-07T22:43:02;3.10;99.90
45849;DHT22;31567;54.600;9.842;2023-12-07T22:46:45;3.10;99.90
45849;DHT22;31567;54.600;9.842;2023-12-07T22:50:25;3.20;99.90
45849;DHT22;31567;54.600;9.842;2023-12-07T22:54:04;3.20;99.90
45849;DHT22;31567;54.600;9.842;2023-12-07T22:57:44;3.20;99.90
45849;DHT22;31567;54.600;9.842;2023-12-07T23:01:24;3.20;99.90
45849;DHT22;31567;54.600;9.842;2023-12-07T23:05:03;3.20;99.90
45849;DHT22;31567;54.600;9.842;2023-12-07T23:08:43;3.20;99.90
45849;DHT22;31567;54.600;9.842;2023-12-07T23:12:22;3.30;99.90
45849;DHT22;31567;54.600;9.842;2023-12-07T23:16:02;3.20;99.90
45849;DHT22;31567;54.600;9.842;2023-12-07T23:19:42;3.20;99.90
45849;DHT22;31567;54.600;9.842;2023-12-07T23:23:22;3.20;99.90
45849;DHT22;31567;54.600;9.842;2023-12-07T23:27:03;3.10;99.90
45849;DHT22;31567;54.600;9.842;2023-12-07T23:30:43;3.10;99.90
45849;DHT22;31567;54.600;9.842;2023-12-07T23:34:22;3.10;99.90
45849;DHT22;31567;54.600;9.842;2023-12-07T23:38:03;3.00;99.90
45849;DHT22;31567;54.600;9.842;2023-12-07T23:41:45;3.00;99.90
45849;DHT22;31567;54.600;9.842;2023-12-07T23:45:24;3.10;99.90